Time;durP1;ratioP1;P1;durP2;ratioP2;P2;SDS_P1;SDS_P2;PMS_P1;PMS_P2;Temp;Humidity;BMP_temperature;BMP_pressure;BME280_temperature;BME280_humidity;BME280_pressure;Samples;Min_cycle;Max_cycle;Signal;HPM_P1;HPM_P2
2021/07/22 00:00:16;;;;;;;6.13;4.80;;;14.40;99.90;;;;;;7675743;23;20160;-67
2021/07/22 00:03:18;;;;;;;7.47;4.87;;;14.40;99.90;;;;;;7675934;23;20171;-67
2021/07/22 00:06:21;;;;;;;7.97;5.17;;;14.40;99.90;;;;;;7676010;23;20199;-67
2021/07/22 00:09:23;;;;;;;5.63;4.47;;;14.40;99.90;;;;;;7675305;23;20175;-67
2021/07/22 00:12:26;;;;;;;5.53;4.93;;;14.50;99.90;;;;;;7649499;23;20172;-67
2021/07/22 00:15:28;;;;;;;6.03;4.70;;;14.50;99.90;;;;;;7677805;23;20168;-67
2021/07/22 00:18:33;;;;;;;5.90;5.40;;;14.50;99.90;;;;;;7652036;23;20202;-67
2021/07/22 00:21:35;;;;;;;8.97;7.03;;;14.60;99.90;;;;;;7651604;23;20572;-68
2021/07/22 00:24:38;;;;;;;9.57;7.20;;;14.60;99.90;;;;;;7678479;23;20486;-67
2021/07/22 00:27:40;;;;;;;10.17;7.27;;;14.60;99.90;;;;;;7678222;23;20620;-66
2021/07/22 00:30:42;;;;;;;8.77;6.70;;;14.60;99.90;;;;;;7651339;23;20612;-66
2021/07/22 00:33:44;;;;;;;7.33;5.53;;;14.70;99.90;;;;;;7678569;23;20170;-66
2021/07/22 00:36:47;;;;;;;12.13;6.67;;;14.70;99.90;;;;;;7651657;23;20179;-67
2021/07/22 00:39:49;;;;;;;6.27;5.53;;;14.70;99.90;;;;;;7678329;23;20156;-66
2021/07/22 00:43:00;;;;;;;7.83;6.23;;;14.60;99.90;;;;;;7651716;23;20667;-66
2021/07/22 00:46:03;;;;;;;8.27;5.63;;;14.60;99.90;;;;;;7677770;23;20156;-67
2021/07/22 00:49:10;;;;;;;6.03;5.00;;;14.50;99.90;;;;;;7652046;23;20203;-67
2021/07/22 00:52:13;;;;;;;7.00;4.53;;;14.40;99.90;;;;;;7678080;23;20246;-67
2021/07/22 00:55:18;;;;;;;5.77;5.17;;;14.30;99.90;;;;;;7678181;23;20609;-67
2021/07/22 00:58:21;;;;;;;5.27;4.77;;;14.20;99.90;;;;;;7627653;23;20207;-66
2021/07/22 01:01:23;;;;;;;5.17;4.67;;;14.20;99.90;;;;;;7677857;23;20164;-66
2021/07/22 01:04:27;;;;;;;6.10;5.07;;;14.20;99.90;;;;;;7651757;23;20204;-67
2021/07/22 01:07:29;;;;;;;6.77;5.00;;;14.10;99.90;;;;;;7678088;23;20175;-67
2021/07/22 01:10:32;;;;;;;6.90;5.30;;;14.10;99.90;;;;;;7678163;23;20172;-66
2021/07/22 01:13:36;;;;;;;6.73;5.33;;;14.00;99.90;;;;;;7651279;23;20179;-67
2021/07/22 01:16:39;;;;;;;6.80;5.27;;;13.90;99.90;;;;;;7651580;23;20195;-66
2021/07/22 01:19:41;;;;;;;6.47;5.10;;;13.90;99.90;;;;;;7651572;23;20203;-67
2021/07/22 01:22:45;;;;;;;6.57;4.87;;;13.90;99.90;;;;;;7677805;23;20167;-66
2021/07/22 01:25:48;;;;;;;5.93;5.10;;;13.80;99.90;;;;;;7627305;23;20199;-66
2021/07/22 01:28:51;;;;;;;7.67;5.13;;;13.70;99.90;;;;;;7651006;23;20176;-66
2021/07/22 01:31:53;;;;;;;5.47;4.90;;;13.60;99.90;;;;;;7651638;23;20608;-67
2021/07/22 01:34:56;;;;;;;5.77;5.17;;;13.60;99.90;;;;;;7678038;23;20254;-66
2021/07/22 01:38:00;;;;;;;5.33;4.50;;;13.50;99.90;;;;;;7677196;23;20187;-67
2021/07/22 01:41:04;;;;;;;4.60;4.20;;;13.50;99.90;;;;;;7677840;23;20167;-66
2021/07/22 01:44:08;;;;;;;6.67;4.97;;;13.40;99.90;;;;;;7650967;23;20172;-66
2021/07/22 01:47:10;;;;;;;5.57;4.50;;;13.40;99.90;;;;;;7677300;23;20172;-67
2021/07/22 01:50:13;;;;;;;5.07;4.57;;;13.40;99.90;;;;;;7651252;23;20172;-66
2021/07/22 01:53:17;;;;;;;5.17;4.77;;;13.40;99.90;;;;;;7650457;23;20172;-66
2021/07/22 01:56:19;;;;;;;9.57;5.27;;;13.30;99.90;;;;;;7677541;23;20171;-66
2021/07/22 01:59:21;;;;;;;5.73;5.23;;;13.30;99.90;;;;;;7676583;23;20194;-66
2021/07/22 02:02:25;;;;;;;6.03;4.60;;;13.30;99.90;;;;;;7650971;23;21062;-67
2021/07/22 02:05:30;;;;;;;5.37;4.87;;;13.20;99.90;;;;;;7625388;23;20220;-66
2021/07/22 02:08:34;;;;;;;5.23;4.73;;;13.10;99.90;;;;;;7614020;23;20184;-66
2021/07/22 02:11:36;;;;;;;5.20;4.70;;;13.10;99.90;;;;;;7614131;23;20190;-66
2021/07/22 02:14:39;;;;;;;5.40;4.83;;;13.10;99.90;;;;;;7639738;23;20180;-66
2021/07/22 02:17:42;;;;;;;5.37;4.87;;;13.00;99.90;;;;;;7640378;23;20224;-66
2021/07/22 02:20:44;;;;;;;6.17;4.67;;;13.00;99.90;;;;;;7639794;23;20221;-66
2021/07/22 02:23:48;;;;;;;5.33;4.70;;;13.00;99.90;;;;;;7639967;23;20474;-66
2021/07/22 02:27:14;;;;;;;5.67;4.93;;;12.90;99.90;;;;;;7631088;23;20628;-66
2021/07/22 02:30:17;;;;;;;6.20;5.60;;;12.90;99.90;;;;;;7613912;23;20172;-66
2021/07/22 02:33:21;;;;;;;6.73;5.40;;;12.80;99.90;;;;;;7639919;23;20179;-66
2021/07/22 02:36:24;;;;;;;7.13;5.27;;;12.80;99.90;;;;;;7639274;23;20504;-66
2021/07/22 02:39:35;;;;;;;7.97;5.63;;;12.80;99.90;;;;;;7613411;23;20191;-66
2021/07/22 02:42:38;;;;;;;5.97;5.10;;;12.70;99.90;;;;;;7613300;23;20175;-66
2021/07/22 02:45:45;;;;;;;6.63;5.03;;;12.70;99.90;;;;;;7613819;23;20207;-66
2021/07/22 02:48:53;;;;;;;6.00;5.33;;;12.70;99.90;;;;;;7614182;23;20169;-66
2021/07/22 02:51:56;;;;;;;6.73;5.83;;;12.70;99.90;;;;;;7613443;23;20219;-66
2021/07/22 02:55:00;;;;;;;6.30;5.30;;;12.60;99.90;;;;;;7613902;23;20188;-66
2021/07/22 02:58:06;;;;;;;6.50;5.03;;;12.60;99.90;;;;;;7639353;23;20771;-66
2021/07/22 03:01:18;;;;;;;7.00;5.00;;;12.60;99.90;;;;;;7616360;23;20153;-66
2021/07/22 03:04:23;;;;;;;5.30;4.80;;;12.50;99.90;;;;;;7623976;23;20682;-66
2021/07/22 03:07:47;;;;;;;6.00;5.27;;;12.50;99.90;;;;;;7676757;23;20156;-66
2021/07/22 03:10:50;;;;;;;6.10;5.50;;;12.40;99.90;;;;;;7676963;23;20183;-66
2021/07/22 03:13:53;;;;;;;10.67;5.73;;;12.40;99.90;;;;;;7650475;23;20622;-66
2021/07/22 03:16:56;;;;;;;5.77;5.20;;;12.40;99.90;;;;;;7650750;23;20236;-66
2021/07/22 03:20:11;;;;;;;5.80;5.13;;;12.40;99.90;;;;;;7649682;23;20256;-66
2021/07/22 03:23:20;;;;;;;5.90;5.30;;;12.40;99.90;;;;;;7652113;23;20491;-66
2021/07/22 03:26:27;;;;;;;5.97;5.47;;;12.30;99.90;;;;;;7676777;23;20611;-67
2021/07/22 03:29:32;;;;;;;6.07;5.57;;;12.30;99.90;;;;;;7650040;23;20199;-66
2021/07/22 03:32:36;;;;;;;6.53;5.87;;;12.30;99.90;;;;;;7650435;23;20190;-66
2021/07/22 03:35:39;;;;;;;6.40;5.80;;;12.30;99.90;;;;;;7649812;23;20185;-66
2021/07/22 03:38:43;;;;;;;5.97;5.37;;;12.30;99.90;;;;;;7676382;23;20217;-67
2021/07/22 03:42:08;;;;;;;6.50;5.83;;;12.30;99.90;;;;;;7663383;23;20173;-66
2021/07/22 03:45:36;;;;;;;6.00;5.40;;;12.20;99.90;;;;;;7675958;23;20255;-66
2021/07/22 03:48:39;;;;;;;6.47;5.40;;;12.20;99.90;;;;;;7649085;23;20235;-66
2021/07/22 03:51:42;;;;;;;6.47;5.73;;;12.20;99.90;;;;;;7625420;23;20696;-66
2021/07/22 03:54:45;;;;;;;6.10;5.50;;;12.20;99.90;;;;;;7649872;23;20173;-66
2021/07/22 03:57:48;;;;;;;6.80;6.00;;;12.30;99.90;;;;;;7675439;23;20509;-66
2021/07/22 04:00:54;;;;;;;7.77;5.93;;;12.30;99.90;;;;;;7649911;23;20185;-66
2021/07/22 04:03:56;;;;;;;6.77;6.07;;;12.30;99.90;;;;;;7648735;23;20335;-66
2021/07/22 04:07:01;;;;;;;7.07;5.53;;;12.30;99.90;;;;;;7675976;23;20588;-66
2021/07/22 04:10:28;;;;;;;8.47;5.57;;;12.40;99.90;;;;;;7650173;23;20189;-66
2021/07/22 04:13:57;;;;;;;9.23;5.83;;;12.40;99.90;;;;;;7526822;23;20319;-66
2021/07/22 04:17:05;;;;;;;6.00;5.37;;;12.40;99.90;;;;;;7502717;23;20176;-66
2021/07/22 04:20:30;;;;;;;6.50;5.90;;;12.40;99.90;;;;;;7506963;23;20182;-66
2021/07/22 04:23:45;;;;;;;7.20;6.10;;;12.40;99.90;;;;;;7503020;23;20239;-66
2021/07/22 04:27:08;;;;;;;6.53;5.83;;;12.40;99.90;;;;;;7526471;23;20198;-66
2021/07/22 04:30:39;;;;;;;5.87;5.33;;;12.40;99.90;;;;;;7511606;23;20181;-66
2021/07/22 04:33:49;;;;;;;6.20;5.57;;;12.40;99.90;;;;;;7526451;23;20161;-66
2021/07/22 04:37:10;;;;;;;7.27;5.87;;;12.50;99.90;;;;;;7526800;23;20266;-66
2021/07/22 04:40:39;;;;;;;11.60;6.37;;;12.50;99.90;;;;;;7521982;23;20181;-66
2021/07/22 04:44:14;;;;;;;6.70;6.10;;;12.50;99.90;;;;;;7496292;23;20189;-67
2021/07/22 04:47:42;;;;;;;6.33;5.73;;;12.60;99.90;;;;;;7526383;23;20198;-66
2021/07/22 04:51:05;;;;;;;6.60;5.83;;;12.70;99.90;;;;;;7627091;23;20612;-66
2021/07/22 04:54:19;;;;;;;6.50;5.67;;;12.70;99.90;;;;;;7649577;23;20508;-66
2021/07/22 04:57:22;;;;;;;5.80;5.17;;;12.70;99.90;;;;;;7648944;23;20236;-66
2021/07/22 05:00:26;;;;;;;6.37;5.73;;;12.80;99.90;;;;;;7650627;23;20198;-67
2021/07/22 05:03:32;;;;;;;8.07;6.53;;;12.90;99.90;;;;;;7677300;23;20183;-66
2021/07/22 05:06:34;;;;;;;8.43;6.13;;;13.00;99.90;;;;;;7677788;23;20182;-66
2021/07/22 05:09:44;;;;;;;6.57;5.97;;;13.20;99.90;;;;;;7653402;23;20157;-67
2021/07/22 05:13:08;;;;;;;6.47;5.87;;;13.30;99.90;;;;;;7677951;23;20166;-66
2021/07/22 05:16:40;;;;;;;7.23;6.53;;;13.60;99.90;;;;;;7657642;23;20625;-67
2021/07/22 05:20:14;;;;;;;6.70;6.10;;;13.80;99.90;;;;;;7650632;23;20211;-66
2021/07/22 05:23:41;;;;;;;6.63;6.03;;;13.90;99.90;;;;;;7677916;23;20148;-67
2021/07/22 05:27:08;;;;;;;6.83;5.50;;;14.10;99.90;;;;;;7677012;23;20240;-67
2021/07/22 05:30:30;;;;;;;8.07;5.50;;;14.20;99.90;;;;;;7677575;23;20180;-66
2021/07/22 05:34:00;;;;;;;6.17;5.50;;;14.30;99.90;;;;;;7631305;23;20618;-66
2021/07/22 05:37:15;;;;;;;7.07;6.37;;;14.30;99.90;;;;;;7677482;23;20159;-66
2021/07/22 05:40:23;;;;;;;5.60;5.10;;;14.40;99.90;;;;;;7677104;23;20296;-67
2021/07/22 05:43:27;;;;;;;6.30;5.70;;;14.40;99.90;;;;;;7651445;23;20164;-67
2021/07/22 05:46:30;;;;;;;5.97;5.37;;;14.50;99.90;;;;;;7677312;23;20161;-67
2021/07/22 05:49:33;;;;;;;6.87;5.80;;;14.50;99.90;;;;;;7650776;23;20172;-67
2021/07/22 05:52:37;;;;;;;7.27;5.87;;;14.50;99.90;;;;;;7651891;23;20243;-67
2021/07/22 05:55:40;;;;;;;6.57;5.97;;;14.60;99.90;;;;;;7650967;23;20171;-67
2021/07/22 05:58:42;;;;;;;5.70;5.10;;;14.70;99.90;;;;;;7651056;23;20195;-67
2021/07/22 06:01:44;;;;;;;6.00;5.27;;;14.70;99.90;;;;;;7677640;23;20655;-66
2021/07/22 06:04:48;;;;;;;7.20;5.60;;;14.80;99.90;;;;;;7676517;23;20269;-67
2021/07/22 06:07:50;;;;;;;8.17;5.83;;;14.90;99.90;;;;;;7649186;23;20484;-67
2021/07/22 06:10:52;;;;;;;9.13;6.80;;;14.90;99.90;;;;;;7649146;23;20518;-67
2021/07/22 06:13:55;;;;;;;7.73;5.57;;;15.00;99.90;;;;;;7676728;23;20540;-66
2021/07/22 06:16:58;;;;;;;6.50;5.83;;;15.10;99.90;;;;;;7649329;23;20552;-67
2021/07/22 06:20:01;;;;;;;7.30;6.10;;;15.10;99.90;;;;;;7676835;23;20512;-67
2021/07/22 06:23:03;;;;;;;7.20;6.03;;;15.20;99.90;;;;;;7676622;23;20498;-66
2021/07/22 06:26:05;;;;;;;8.40;5.80;;;15.30;99.90;;;;;;7675636;23;20241;-67
2021/07/22 06:29:08;;;;;;;6.33;5.73;;;15.30;99.90;;;;;;7675763;23;20168;-67
2021/07/22 06:32:10;;;;;;;9.10;6.00;;;15.40;99.90;;;;;;7676122;23;20168;-66
2021/07/22 06:35:12;;;;;;;8.40;5.73;;;15.60;99.90;;;;;;7676314;23;20172;-67
2021/07/22 06:38:15;;;;;;;7.53;5.33;;;15.70;99.90;;;;;;7649261;23;20235;-67
2021/07/22 06:41:21;;;;;;;6.57;5.73;;;15.90;99.90;;;;;;7649350;23;20168;-67
2021/07/22 06:44:23;;;;;;;6.17;5.57;;;16.10;99.90;;;;;;7676365;23;20148;-67
2021/07/22 06:47:26;;;;;;;8.17;5.30;;;16.30;99.90;;;;;;7647446;23;20188;-66
2021/07/22 06:50:28;;;;;;;5.70;4.70;;;16.60;99.90;;;;;;7649517;23;20186;-67
2021/07/22 06:53:30;;;;;;;5.10;4.50;;;16.90;99.90;;;;;;7675827;23;20484;-66
2021/07/22 06:56:33;;;;;;;5.87;4.60;;;17.20;99.90;;;;;;7623614;23;20184;-67
2021/07/22 06:59:35;;;;;;;6.07;4.60;;;17.50;99.90;;;;;;7675542;23;20183;-67
2021/07/22 07:02:37;;;;;;;5.43;4.50;;;17.80;99.90;;;;;;7675385;23;20690;-67
2021/07/22 07:05:39;;;;;;;6.77;4.50;;;18.10;99.90;;;;;;7675080;23;20192;-67
2021/07/22 07:08:42;;;;;;;4.77;4.27;;;18.40;99.90;;;;;;7674644;23;20239;-67
2021/07/22 07:11:44;;;;;;;5.93;4.00;;;18.60;99.90;;;;;;7675868;23;20187;-67
2021/07/22 07:14:46;;;;;;;5.13;4.40;;;18.90;99.90;;;;;;7675752;23;20172;-67
2021/07/22 07:17:49;;;;;;;4.83;3.90;;;19.10;99.90;;;;;;7674299;23;20164;-67
2021/07/22 07:20:51;;;;;;;4.30;3.73;;;19.40;99.90;;;;;;7625054;23;20195;-68
2021/07/22 07:23:53;;;;;;;5.43;3.77;;;19.60;99.90;;;;;;7648916;23;20172;-68
2021/07/22 07:26:55;;;;;;;5.37;4.30;;;19.90;99.90;;;;;;7674695;23;20219;-68
2021/07/22 07:29:58;;;;;;;6.93;4.27;;;20.10;99.90;;;;;;7649148;23;20536;-68
2021/07/22 07:33:00;;;;;;;5.83;3.90;;;20.40;99.90;;;;;;7675391;23;20244;-68
2021/07/22 07:36:02;;;;;;;8.47;4.30;;;20.70;99.90;;;;;;7624805;23;20492;-68
2021/07/22 07:39:05;;;;;;;6.70;4.30;;;21.00;99.90;;;;;;7674528;23;20246;-69
2021/07/22 07:42:07;;;;;;;6.50;4.10;;;21.20;99.50;;;;;;7675578;23;20161;-68
2021/07/22 07:45:10;;;;;;;5.43;3.90;;;21.40;98.60;;;;;;7649532;23;20188;-69
2021/07/22 07:48:16;;;;;;;6.23;4.53;;;21.80;96.90;;;;;;7649278;23;20163;-68
2021/07/22 07:51:18;;;;;;;5.03;3.90;;;22.10;94.90;;;;;;7675656;23;20552;-69
2021/07/22 07:54:22;;;;;;;4.53;3.60;;;22.40;95.10;;;;;;7675311;23;20176;-69
2021/07/22 07:57:25;;;;;;;5.07;4.20;;;22.80;94.50;;;;;;7674543;23;20172;-69
2021/07/22 08:00:27;;;;;;;4.50;4.00;;;23.10;92.10;;;;;;7675079;23;20211;-69
2021/07/22 08:03:29;;;;;;;6.27;4.10;;;23.30;92.70;;;;;;7675666;23;20477;-69
2021/07/22 08:06:31;;;;;;;5.37;4.17;;;23.70;91.70;;;;;;7674659;23;20187;-69
2021/07/22 08:09:34;;;;;;;4.87;3.67;;;24.00;90.10;;;;;;7674910;23;20168;-68
2021/07/22 08:12:36;;;;;;;6.53;4.40;;;24.10;86.10;;;;;;7675514;23;20168;-69
2021/07/22 08:15:41;;;;;;;5.70;4.30;;;24.10;85.00;;;;;;7674857;23;20536;-69
2021/07/22 08:18:45;;;;;;;5.97;4.17;;;24.40;85.10;;;;;;7648488;23;20184;-69
2021/07/22 08:21:48;;;;;;;6.03;3.77;;;24.60;83.10;;;;;;7650706;23;20194;-68
2021/07/22 08:24:50;;;;;;;4.57;4.17;;;24.90;82.30;;;;;;7676002;23;20167;-69
2021/07/22 08:27:52;;;;;;;5.07;4.00;;;25.10;80.50;;;;;;7675722;23;20175;-68
2021/07/22 08:30:54;;;;;;;5.10;3.87;;;25.40;78.90;;;;;;7624546;23;20254;-68
2021/07/22 08:33:57;;;;;;;4.32;3.92;;;25.80;79.40;;;;;;7675719;23;20218;-69
2021/07/22 08:37:06;;;;;;;5.87;3.90;;;25.80;75.60;;;;;;7676950;23;20234;-69
2021/07/22 08:40:13;;;;;;;4.67;3.80;;;25.70;68.00;;;;;;7650343;23;20193;-69
2021/07/22 08:43:17;;;;;;;3.77;3.37;;;25.20;71.40;;;;;;7652221;23;20555;-69
2021/07/22 08:46:22;;;;;;;4.13;3.72;;;24.90;72.80;;;;;;7677826;23;20148;-68
2021/07/22 08:49:25;;;;;;;4.67;3.40;;;24.60;74.90;;;;;;7678070;23;20164;-70
2021/07/22 08:52:27;;;;;;;4.40;3.77;;;24.50;76.20;;;;;;7651150;23;20168;-69
2021/07/22 08:55:30;;;;;;;4.20;3.43;;;24.60;77.30;;;;;;7677746;23;20202;-69
2021/07/22 08:58:37;;;;;;;6.00;4.20;;;25.10;77.50;;;;;;7676547;23;20191;-68
2021/07/22 09:01:42;;;;;;;4.33;3.33;;;25.30;76.40;;;;;;7650532;23;20160;-69
2021/07/22 09:04:54;;;;;;;3.60;3.30;;;25.50;76.20;;;;;;7676481;23;20527;-69
2021/07/22 09:07:57;;;;;;;4.10;3.40;;;25.50;76.50;;;;;;7649203;23;20595;-69
2021/07/22 09:11:09;;;;;;;3.88;3.47;;;25.70;76.90;;;;;;7677553;23;20187;-69
2021/07/22 09:14:12;;;;;;;3.65;3.35;;;26.00;69.00;;;;;;7677278;23;20663;-69
2021/07/22 09:17:27;;;;;;;4.18;3.53;;;26.30;70.40;;;;;;7674772;23;20188;-69
2021/07/22 09:20:35;;;;;;;3.53;3.13;;;26.70;64.70;;;;;;7676533;23;20176;-69
2021/07/22 09:23:37;;;;;;;4.50;3.53;;;27.10;65.50;;;;;;7648907;23;20152;-69
2021/07/22 09:26:43;;;;;;;3.50;3.20;;;27.60;60.10;;;;;;7650419;23;20523;-68
2021/07/22 09:29:58;;;;;;;4.13;3.72;;;28.00;61.20;;;;;;7676534;23;20501;-69
2021/07/22 09:33:03;;;;;;;3.85;3.45;;;28.20;57.60;;;;;;7676115;23;20161;-69
2021/07/22 09:36:07;;;;;;;3.97;3.10;;;28.10;55.90;;;;;;7677027;23;20366;-69
2021/07/22 09:39:30;;;;;;;3.70;3.25;;;28.50;56.30;;;;;;7649444;23;20200;-69
2021/07/22 09:42:44;;;;;;;4.75;3.47;;;28.20;58.70;;;;;;7651346;23;20152;-69
2021/07/22 09:45:48;;;;;;;5.28;3.85;;;28.40;56.50;;;;;;7650183;23;20669;-68
2021/07/22 09:49:10;;;;;;;4.05;3.60;;;28.30;54.10;;;;;;7649964;23;20176;-68
2021/07/22 09:52:17;;;;;;;3.90;3.40;;;28.20;57.20;;;;;;7675757;23;20192;-70
2021/07/22 09:55:33;;;;;;;3.88;3.33;;;28.30;55.00;;;;;;7677031;23;20160;-69
2021/07/22 09:58:36;;;;;;;4.10;3.33;;;28.70;56.80;;;;;;7650295;23;20523;-69
2021/07/22 10:01:45;;;;;;;3.83;3.50;;;29.00;53.10;;;;;;7676732;23;20612;-69
2021/07/22 10:05:16;;;;;;;3.92;3.40;;;29.40;52.30;;;;;;7677693;23;20734;-70
2021/07/22 10:08:23;;;;;;;4.50;3.35;;;29.80;50.90;;;;;;7650186;23;20603;-70
2021/07/22 10:11:25;;;;;;;4.45;3.70;;;30.10;51.10;;;;;;7650287;23;20176;-69
2021/07/22 10:14:29;;;;;;;3.78;3.22;;;30.50;50.30;;;;;;7676194;23;20168;-69
2021/07/22 10:17:36;;;;;;;3.88;3.38;;;30.50;48.80;;;;;;7650015;23;20165;-69
2021/07/22 10:20:42;;;;;;;5.30;4.05;;;30.50;47.60;;;;;;7649956;23;20199;-69
2021/07/22 10:23:45;;;;;;;5.55;3.80;;;29.90;45.60;;;;;;7676374;23;20152;-69
2021/07/22 10:26:49;;;;;;;4.57;3.28;;;29.80;45.80;;;;;;7676090;23;20172;-69
2021/07/22 10:29:52;;;;;;;4.15;3.50;;;30.00;46.40;;;;;;7676198;23;20164;-69
2021/07/22 10:32:57;;;;;;;6.60;3.85;;;30.50;47.70;;;;;;7650536;23;20230;-69
2021/07/22 10:36:01;;;;;;;3.50;3.20;;;30.90;46.60;;;;;;7675876;23;20552;-69
2021/07/22 10:39:03;;;;;;;4.60;3.65;;;30.80;46.50;;;;;;7647851;23;20179;-69
2021/07/22 10:42:06;;;;;;;5.10;3.50;;;30.80;47.10;;;;;;7676426;23;20243;-69
2021/07/22 10:45:20;;;;;;;4.10;3.70;;;30.40;46.60;;;;;;7650024;23;20167;-69
2021/07/22 10:48:26;;;;;;;3.85;3.30;;;29.90;46.60;;;;;;7676212;23;20160;-69
2021/07/22 10:51:39;;;;;;;4.40;3.97;;;29.40;48.00;;;;;;7649420;23;20214;-70
2021/07/22 10:54:41;;;;;;;4.20;3.80;;;29.60;48.50;;;;;;7676521;23;20159;-69
2021/07/22 10:57:44;;;;;;;4.72;4.03;;;29.70;47.60;;;;;;7675406;23;20169;-69
2021/07/22 11:00:46;;;;;;;3.97;3.55;;;29.40;49.00;;;;;;7675609;23;20204;-70
2021/07/22 11:03:52;;;;;;;4.43;3.70;;;29.60;49.10;;;;;;7676210;23;20160;-69
2021/07/22 11:07:00;;;;;;;4.07;3.67;;;29.80;48.80;;;;;;7674765;23;20250;-69
2021/07/22 11:10:03;;;;;;;5.57;3.83;;;29.70;49.20;;;;;;7650542;23;20230;-69
2021/07/22 11:13:39;;;;;;;4.30;3.85;;;30.00;50.70;;;;;;7676767;23;20188;-69
2021/07/22 11:16:58;;;;;;;4.32;3.80;;;30.50;46.10;;;;;;7675063;23;20597;-69
2021/07/22 11:20:19;;;;;;;4.13;3.60;;;30.70;45.70;;;;;;7675717;23;20219;-69
2021/07/22 11:23:21;;;;;;;4.60;4.13;;;31.20;46.60;;;;;;7675103;23;20215;-69
2021/07/22 11:26:35;;;;;;;4.85;4.10;;;31.00;44.10;;;;;;7649513;23;20172;-69
2021/07/22 11:29:46;;;;;;;4.55;3.78;;;30.90;44.50;;;;;;7647305;23;20192;-69
2021/07/22 11:32:49;;;;;;;4.38;3.97;;;31.00;44.90;;;;;;7676248;23;20215;-69
2021/07/22 11:35:59;;;;;;;4.50;3.85;;;31.00;45.30;;;;;;7675176;23;20477;-70
2021/07/22 11:39:03;;;;;;;5.70;4.13;;;31.30;44.10;;;;;;7674988;23;20152;-69
2021/07/22 11:42:13;;;;;;;4.72;4.20;;;31.70;44.50;;;;;;7647936;23;20164;-69
2021/07/22 11:45:21;;;;;;;5.93;4.05;;;31.80;44.30;;;;;;7674459;23;20479;-69
2021/07/22 11:48:24;;;;;;;6.53;4.10;;;32.20;44.80;;;;;;7674917;23;20170;-69
2021/07/22 11:51:29;;;;;;;4.60;4.20;;;32.70;44.70;;;;;;7675179;23;20171;-69
2021/07/22 11:54:32;;;;;;;5.65;4.35;;;32.90;42.80;;;;;;7649856;23;20148;-69
2021/07/22 11:57:35;;;;;;;5.38;4.05;;;32.50;42.30;;;;;;7648646;23;20242;-70
2021/07/22 12:00:37;;;;;;;5.30;4.50;;;31.90;43.00;;;;;;7625015;23;20598;-69
2021/07/22 12:03:41;;;;;;;4.38;3.95;;;31.80;43.60;;;;;;7674476;23;20500;-69
2021/07/22 12:06:50;;;;;;;4.93;4.22;;;31.80;43.20;;;;;;7647023;23;20202;-69
2021/07/22 12:09:53;;;;;;;4.72;4.25;;;32.00;41.80;;;;;;7624523;23;20198;-70
2021/07/22 12:13:04;;;;;;;4.38;3.63;;;32.30;42.00;;;;;;7652073;23;20592;-69
2021/07/22 12:16:06;;;;;;;4.63;4.20;;;32.70;41.70;;;;;;7676012;23;20159;-70
2021/07/22 12:19:09;;;;;;;5.35;4.03;;;32.70;40.60;;;;;;7676896;23;20163;-69
2021/07/22 12:22:29;;;;;;;4.30;3.90;;;32.20;42.10;;;;;;7675994;23;20168;-70
2021/07/22 12:25:31;;;;;;;4.28;3.88;;;32.40;42.40;;;;;;7678034;23;20195;-70
2021/07/22 12:28:34;;;;;;;10.65;3.63;;;32.30;41.50;;;;;;7650278;23;20164;-70
2021/07/22 12:31:40;;;;;;;5.78;4.07;;;32.20;41.70;;;;;;7678038;23;20196;-69
2021/07/22 12:34:42;;;;;;;4.97;4.43;;;32.10;41.90;;;;;;7651213;23;20195;-69
2021/07/22 12:38:00;;;;;;;5.00;4.60;;;31.60;41.80;;;;;;7650676;23;20287;-69
2021/07/22 12:41:07;;;;;;;3.83;3.53;;;31.70;41.30;;;;;;7651338;23;20643;-70
2021/07/22 12:44:51;;;;;;;6.38;3.83;;;32.10;40.80;;;;;;7677597;23;20187;-70
2021/07/22 12:47:53;;;;;;;4.07;3.70;;;32.60;40.80;;;;;;7676751;23;20239;-69
2021/07/22 12:50:56;;;;;;;4.47;4.07;;;33.00;40.80;;;;;;7677210;23;20168;-70
2021/07/22 12:53:58;;;;;;;4.18;3.78;;;33.00;39.90;;;;;;7677788;23;20168;-69
2021/07/22 12:57:07;;;;;;;5.97;3.95;;;33.10;40.80;;;;;;7676411;23;20219;-69
2021/07/22 13:00:11;;;;;;;5.25;3.80;;;33.40;41.30;;;;;;7626374;23;20189;-69
2021/07/22 13:03:13;;;;;;;4.07;3.72;;;33.80;40.60;;;;;;7677507;23;20612;-69
2021/07/22 13:06:17;;;;;;;5.20;3.80;;;33.70;40.90;;;;;;7616751;23;20267;-70
2021/07/22 13:09:20;;;;;;;5.25;3.88;;;33.60;40.80;;;;;;7640031;23;20247;-69
2021/07/22 13:12:22;;;;;;;5.05;4.03;;;33.70;38.40;;;;;;7640299;23;20164;-69
2021/07/22 13:15:24;;;;;;;5.93;3.97;;;33.30;39.50;;;;;;7640313;23;20193;-69
2021/07/22 13:18:27;;;;;;;4.38;3.97;;;33.20;40.60;;;;;;7613786;23;20275;-70
2021/07/22 13:21:44;;;;;;;4.20;3.80;;;32.70;40.10;;;;;;7640697;23;20311;-69
2021/07/22 13:24:49;;;;;;;4.15;3.75;;;32.80;39.80;;;;;;7614858;23;20164;-69
2021/07/22 13:27:51;;;;;;;5.90;4.32;;;33.10;40.90;;;;;;7638850;23;20165;-69
2021/07/22 13:30:54;;;;;;;4.50;4.10;;;33.00;40.20;;;;;;7640463;23;20617;-69
2021/07/22 13:33:56;;;;;;;5.05;4.13;;;32.80;40.90;;;;;;7639977;23;20172;-69
2021/07/22 13:36:58;;;;;;;4.90;4.40;;;32.80;40.50;;;;;;7639718;23;20165;-69
2021/07/22 13:40:01;;;;;;;7.28;4.38;;;32.50;40.70;;;;;;7640026;23;20210;-69
2021/07/22 13:43:03;;;;;;;3.78;3.38;;;32.90;40.60;;;;;;7613711;23;20225;-69
2021/07/22 13:46:05;;;;;;;5.38;4.40;;;33.60;39.70;;;;;;7614390;23;20636;-69
2021/07/22 13:49:08;;;;;;;5.72;3.60;;;33.90;38.00;;;;;;7639093;23;20165;-69
2021/07/22 13:52:10;;;;;;;4.22;3.83;;;33.70;38.70;;;;;;7640797;23;20176;-69
2021/07/22 13:55:13;;;;;;;4.68;4.22;;;33.40;39.20;;;;;;7614536;23;20165;-69
2021/07/22 13:58:15;;;;;;;4.97;4.40;;;33.70;39.00;;;;;;7612548;23;20180;-69
2021/07/22 14:01:17;;;;;;;5.78;4.05;;;33.50;39.30;;;;;;7640062;23;20568;-69
2021/07/22 14:04:20;;;;;;;5.90;4.30;;;33.40;39.10;;;;;;7649384;23;20192;-69
2021/07/22 14:07:22;;;;;;;5.93;4.18;;;33.90;38.40;;;;;;7676318;23;20761;-69
2021/07/22 14:10:24;;;;;;;5.97;4.65;;;34.60;37.70;;;;;;7676119;23;20164;-69
2021/07/22 14:13:27;;;;;;;6.78;4.15;;;35.00;38.90;;;;;;7676679;23;20172;-69
2021/07/22 14:16:29;;;;;;;5.40;3.70;;;35.90;38.40;;;;;;7677321;23;20239;-69
2021/07/22 14:19:41;;;;;;;4.47;4.05;;;36.60;36.70;;;;;;7676952;23;20255;-68
2021/07/22 14:22:43;;;;;;;4.10;3.78;;;36.40;35.80;;;;;;7678317;23;20534;-70
2021/07/22 14:25:46;;;;;;;4.40;4.00;;;36.50;36.10;;;;;;7677643;23;20608;-69
2021/07/22 14:28:48;;;;;;;5.55;4.28;;;36.70;36.20;;;;;;7677706;23;20234;-69
2021/07/22 14:31:55;;;;;;;4.72;4.32;;;37.20;34.90;;;;;;7677539;23;20236;-68
2021/07/22 14:34:57;;;;;;;5.00;4.53;;;37.20;34.60;;;;;;7651598;23;20176;-69
2021/07/22 14:37:59;;;;;;;5.05;4.55;;;37.50;34.30;;;;;;7651264;23;20578;-69
2021/07/22 14:41:01;;;;;;;6.43;4.40;;;38.00;34.20;;;;;;7677534;23;20187;-69
2021/07/22 14:44:04;;;;;;;5.97;4.45;;;38.30;33.20;;;;;;7651834;23;20160;-69
2021/07/22 14:47:07;;;;;;;4.45;4.05;;;38.50;33.70;;;;;;7677647;23;20234;-69
2021/07/22 14:50:09;;;;;;;5.43;3.90;;;38.00;33.30;;;;;;7677972;23;20164;-69
2021/07/22 14:53:11;;;;;;;5.22;3.97;;;38.00;33.60;;;;;;7678524;23;20255;-69
2021/07/22 14:56:14;;;;;;;4.53;4.13;;;38.60;34.00;;;;;;7677515;23;20478;-69
2021/07/22 14:59:16;;;;;;;4.28;3.60;;;39.10;32.70;;;;;;7651190;23;20180;-69
2021/07/22 15:02:21;;;;;;;4.13;3.65;;;39.20;32.10;;;;;;7678580;23;20251;-70
2021/07/22 15:05:25;;;;;;;5.00;3.70;;;39.40;33.20;;;;;;7675825;23;20199;-67
2021/07/22 15:08:27;;;;;;;3.45;3.10;;;39.80;32.00;;;;;;7675475;23;20172;-67
2021/07/22 15:11:29;;;;;;;5.55;4.07;;;40.20;31.00;;;;;;7676112;23;20188;-66
2021/07/22 15:14:31;;;;;;;3.45;3.15;;;39.70;30.20;;;;;;7676345;23;20164;-67
2021/07/22 15:17:34;;;;;;;5.97;3.40;;;39.50;31.10;;;;;;7674789;23;20187;-66
2021/07/22 15:20:36;;;;;;;3.45;3.15;;;39.50;33.60;;;;;;7676285;23;20234;-67
2021/07/22 15:23:38;;;;;;;3.67;3.38;;;39.50;31.70;;;;;;7677686;23;20239;-67
2021/07/22 15:26:41;;;;;;;3.78;3.40;;;39.30;31.00;;;;;;7676409;23;20247;-67
2021/07/22 15:29:43;;;;;;;3.63;3.30;;;38.90;31.30;;;;;;7650955;23;20211;-67
2021/07/22 15:32:45;;;;;;;3.95;3.45;;;38.90;32.60;;;;;;7676704;23;20222;-67
2021/07/22 15:35:48;;;;;;;3.58;3.28;;;39.10;31.60;;;;;;7676636;23;20179;-67
2021/07/22 15:38:50;;;;;;;4.05;3.25;;;38.90;31.10;;;;;;7649818;23;20180;-67
2021/07/22 15:41:52;;;;;;;3.40;3.10;;;38.90;31.00;;;;;;7675435;23;20186;-69
2021/07/22 15:45:00;;;;;;;3.50;3.20;;;39.10;31.30;;;;;;7675327;23;20184;-67
2021/07/22 15:48:02;;;;;;;4.32;3.10;;;39.00;31.50;;;;;;7674415;23;20159;-66
2021/07/22 15:51:05;;;;;;;3.95;3.15;;;38.50;31.50;;;;;;7676005;23;20171;-66
2021/07/22 15:54:08;;;;;;;3.85;3.38;;;38.10;33.60;;;;;;7675934;23;20172;-66
2021/07/22 15:57:11;;;;;;;4.35;2.92;;;38.20;32.30;;;;;;7676695;23;20640;-66
2021/07/22 16:00:14;;;;;;;3.70;3.38;;;37.80;33.00;;;;;;7676463;23;20164;-66
2021/07/22 16:03:17;;;;;;;3.58;3.17;;;37.60;32.20;;;;;;7676136;23;20168;-66
2021/07/22 16:06:19;;;;;;;3.67;3.20;;;37.20;32.50;;;;;;7676173;23;20199;-66